Time;durP1;ratioP1;P1;durP2;ratioP2;P2;SDS_P1;SDS_P2;PMS_P1;PMS_P2;Temp;Humidity;BMP_temperature;BMP_pressure;BME280_temperature;BME280_humidity;BME280_pressure;Samples;Min_cycle;Max_cycle;Signal;HPM_P1;HPM_P2
2023/09/28 00:06:29;;;;;;;15;7.9;;;;;;;12.92;92.07;;;;;
2023/09/28 00:16:29;;;;;;;15;7.9;;;;;;;12.75;92.28;;;;;
2023/09/28 00:27:29;;;;;;;15;7.9;;;;;;;12.73;92.28;;;;;
2023/09/28 00:37:29;;;;;;;12.4;7.5;;;;;;;12.62;92.19;;;;;
2023/09/28 00:48:29;;;;;;;12.4;7.5;;;;;;;12.79;93.85;;;;;
2023/09/28 00:59:29;;;;;;;12.4;7.5;;;;;;;12.67;93.14;;;;;
2023/09/28 01:10:29;;;;;;;13.1;7.4;;;;;;;12.49;92.49;;;;;
2023/09/28 01:21:31;;;;;;;13.1;7.4;;;;;;;12.26;92.61;;;;;
2023/09/28 01:31:29;;;;;;;13.1;7.4;;;;;;;12.26;92.9;;;;;
2023/09/28 01:42:29;;;;;;;12.9;8.1;;;;;;;12.27;92.91;;;;;
2023/09/28 01:53:29;;;;;;;12.9;8.1;;;;;;;12.2;92.6;;;;;
2023/09/28 02:04:29;;;;;;;12.9;8.1;;;;;;;12.12;92.1;;;;;
2023/09/28 02:15:29;;;;;;;13;7.2;;;;;;;12.07;92.17;;;;;
2023/09/28 02:26:29;;;;;;;13;7.2;;;;;;;12.06;92.11;;;;;
2023/09/28 02:37:29;;;;;;;11.8;7.4;;;;;;;12.15;92.18;;;;;
2023/09/28 02:47:29;;;;;;;11.8;7.4;;;;;;;12.02;91.58;;;;;
2023/09/28 02:57:29;;;;;;;11.8;7.4;;;;;;;11.92;92.21;;;;;
2023/09/28 03:08:30;;;;;;;11.4;6.6;;;;;;;11.93;91.79;;;;;
2023/09/28 03:18:29;;;;;;;11.4;6.6;;;;;;;11.87;91.17;;;;;
2023/09/28 03:29:29;;;;;;;11.4;6.6;;;;;;;11.69;90.99;;;;;
2023/09/28 03:40:33;;;;;;;12;7.2;;;;;;;11.58;90.84;;;;;
2023/09/28 03:51:29;;;;;;;12;7.2;;;;;;;11.48;90.62;;;;;
2023/09/28 04:01:29;;;;;;;12;7.2;;;;;;;11.43;90.85;;;;;
2023/09/28 04:11:29;;;;;;;10.3;6.2;;;;;;;11.33;90.87;;;;;
2023/09/28 04:22:29;;;;;;;10.3;6.2;;;;;;;11.21;90.49;;;;;
2023/09/28 04:33:29;;;;;;;10.3;6.2;;;;;;;11.15;90.79;;;;;
2023/09/28 04:43:29;;;;;;;12.2;7;;;;;;;11.15;91.13;;;;;
2023/09/28 04:53:29;;;;;;;12.2;7;;;;;;;11.25;91.34;;;;;
2023/09/28 05:04:29;;;;;;;12.2;7;;;;;;;11.26;91.45;;;;;
2023/09/28 05:14:29;;;;;;;13.6;6.3;;;;;;;11.35;91.64;;;;;
2023/09/28 05:24:30;;;;;;;13.6;6.3;;;;;;;11.49;91.51;;;;;
2023/09/28 05:35:29;;;;;;;13.3;6.9;;;;;;;11.7;91.92;;;;;
2023/09/28 05:45:32;;;;;;;13.3;6.9;;;;;;;12.03;92.44;;;;;
2023/09/28 05:56:29;;;;;;;13.3;6.9;;;;;;;12.41;92.37;;;;;
2023/09/28 06:06:29;;;;;;;16.4;8.6;;;;;;;12.62;92.1;;;;;
2023/09/28 06:16:29;;;;;;;16.4;8.6;;;;;;;12.98;92.64;;;;;
2023/09/28 06:27:29;;;;;;;16.4;8.6;;;;;;;13.47;92.56;;;;;
2023/09/28 06:38:29;;;;;;;15.4;10.5;;;;;;;13.89;91.82;;;;;
2023/09/28 06:48:29;;;;;;;15.4;10.5;;;;;;;14.45;91.71;;;;;
2023/09/28 06:58:29;;;;;;;15.4;10.5;;;;;;;14.95;90.93;;;;;
2023/09/28 07:09:29;;;;;;;15.3;11.1;;;;;;;15.56;89.41;;;;;
2023/09/28 07:19:29;;;;;;;15.3;11.1;;;;;;;16.14;89.13;;;;;
2023/09/28 07:30:30;;;;;;;15.3;11.1;;;;;;;16.71;88.39;;;;;
2023/09/28 07:41:29;;;;;;;16;12.1;;;;;;;17.26;86.81;;;;;
2023/09/28 07:51:29;;;;;;;16;12.1;;;;;;;17.69;84.86;;;;;
2023/09/28 08:02:29;;;;;;;16;12.1;;;;;;;18.11;85.22;;;;;
2023/09/28 08:12:29;;;;;;;18.7;12.9;;;;;;;18.76;84.09;;;;;
2023/09/28 08:23:29;;;;;;;18.7;12.9;;;;;;;19.28;81.83;;;;;
2023/09/28 08:34:29;;;;;;;18.7;12.9;;;;;;;19.71;81.38;;;;;
2023/09/28 08:44:29;;;;;;;16.6;10.6;;;;;;;19.99;79.79;;;;;
2023/09/28 08:54:29;;;;;;;16.6;10.6;;;;;;;20.65;77.83;;;;;
2023/09/28 09:04:29;;;;;;;16.6;10.6;;;;;;;21.07;73.65;;;;;
2023/09/28 09:15:29;;;;;;;13.6;9;;;;;;;21.65;72.24;;;;;
2023/09/28 09:25:29;;;;;;;13.6;9;;;;;;;22.08;65.51;;;;;
2023/09/28 09:35:30;;;;;;;10.4;6.7;;;;;;;22.37;60.4;;;;;
2023/09/28 09:46:29;;;;;;;10.4;6.7;;;;;;;22.55;59.94;;;;;
2023/09/28 09:56:29;;;;;;;10.4;6.7;;;;;;;22.8;59.61;;;;;
2023/09/28 10:07:32;;;;;;;8.8;6.1;;;;;;;23.21;59.41;;;;;
2023/09/28 10:18:29;;;;;;;8.8;6.1;;;;;;;23.64;61.35;;;;;
2023/09/28 10:28:33;;;;;;;8.8;6.1;;;;;;;23.93;58.06;;;;;
2023/09/28 10:39:29;;;;;;;9.2;5.1;;;;;;;23.89;56.76;;;;;
2023/09/28 10:49:29;;;;;;;9.2;5.1;;;;;;;24.3;58.7;;;;;
2023/09/28 10:59:29;;;;;;;9.2;5.1;;;;;;;24.38;55.42;;;;;
2023/09/28 11:10:29;;;;;;;8.3;5.4;;;;;;;24.41;55.18;;;;;
2023/09/28 11:20:31;;;;;;;8.3;5.4;;;;;;;24.49;53.62;;;;;
2023/09/28 11:30:29;;;;;;;8.3;5.4;;;;;;;24.8;52.73;;;;;
2023/09/28 11:41:29;;;;;;;9.8;5.1;;;;;;;24.66;53.39;;;;;
2023/09/28 11:52:30;;;;;;;9.8;5.1;;;;;;;24.92;50.54;;;;;
2023/09/28 12:03:29;;;;;;;9.8;5.1;;;;;;;24.93;51.17;;;;;
2023/09/28 12:14:29;;;;;;;7.8;4.6;;;;;;;25.22;51.16;;;;;
2023/09/28 12:25:33;;;;;;;7.8;4.6;;;;;;;25.56;52.64;;;;;
2023/09/28 12:36:31;;;;;;;8.8;4.6;;;;;;;25.44;49.88;;;;;
2023/09/28 12:47:29;;;;;;;8.8;4.6;;;;;;;25.59;50.94;;;;;
2023/09/28 12:57:29;;;;;;;8.8;4.6;;;;;;;25.74;49.57;;;;;
2023/09/28 13:07:29;;;;;;;8.8;5;;;;;;;25.58;49.44;;;;;
2023/09/28 13:18:29;;;;;;;8.8;5;;;;;;;25.82;48.78;;;;;
2023/09/28 13:28:29;;;;;;;8.8;5;;;;;;;25.62;49.93;;;;;
2023/09/28 13:39:30;;;;;;;8.7;4.9;;;;;;;25.78;49.73;;;;;
2023/09/28 13:50:30;;;;;;;8.7;4.9;;;;;;;25.71;50.55;;;;;
2023/09/28 14:01:29;;;;;;;8.7;4.9;;;;;;;25.75;53.41;;;;;
2023/09/28 14:12:30;;;;;;;8.7;5.2;;;;;;;25.75;52.79;;;;;
2023/09/28 14:22:29;;;;;;;8.7;5.2;;;;;;;25.55;53.62;;;;;
2023/09/28 14:33:30;;;;;;;8.7;5.2;;;;;;;25.47;53.75;;;;;
2023/09/28 14:44:29;;;;;;;9.1;5.4;;;;;;;25.13;54.32;;;;;
2023/09/28 14:54:29;;;;;;;9.1;5.4;;;;;;;24.99;54.64;;;;;
2023/09/28 15:04:29;;;;;;;9.1;5.4;;;;;;;24.9;54.08;;;;;
2023/09/28 15:14:31;;;;;;;10.4;5.5;;;;;;;24.83;54.52;;;;;
2023/09/28 15:24:29;;;;;;;10.4;5.5;;;;;;;25.57;52.87;;;;;
2023/09/28 15:35:29;;;;;;;10.4;5.5;;;;;;;27.44;49.36;;;;;
2023/09/28 15:46:30;;;;;;;8.2;5.1;;;;;;;27.45;48.28;;;;;
2023/09/28 15:56:29;;;;;;;8.2;5.1;;;;;;;26.44;49.6;;;;;
2023/09/28 16:07:29;;;;;;;9;5.3;;;;;;;24.52;55.1;;;;;
2023/09/28 16:18:29;;;;;;;9;5.3;;;;;;;22.93;58.77;;;;;
2023/09/28 16:28:29;;;;;;;9;5.3;;;;;;;21.88;63.65;;;;;
2023/09/28 16:38:29;;;;;;;12.9;6.9;;;;;;;21.02;67.8;;;;;
2023/09/28 16:49:29;;;;;;;12.9;6.9;;;;;;;20.02;70.19;;;;;
2023/09/28 16:59:29;;;;;;;12.9;6.9;;;;;;;19.37;73.06;;;;;
2023/09/28 17:10:30;;;;;;;14.7;9;;;;;;;18.69;74.41;;;;;
2023/09/28 17:20:29;;;;;;;14.7;9;;;;;;;18.41;75.74;;;;;
2023/09/28 17:31:29;;;;;;;14.7;9;;;;;;;18.16;76.89;;;;;
2023/09/28 17:41:29;;;;;;;16.1;13.2;;;;;;;17.72;76.39;;;;;
2023/09/28 17:51:32;;;;;;;16.1;13.2;;;;;;;17.39;78.48;;;;;
2023/09/28 18:02:29;;;;;;;16.1;13.2;;;;;;;17.05;80.32;;;;;
2023/09/28 18:13:29;;;;;;;13.9;10.5;;;;;;;16.83;82.09;;;;;
2023/09/28 18:23:29;;;;;;;13.9;10.5;;;;;;;16.6;82.89;;;;;
2023/09/28 18:34:29;;;;;;;13.9;10.5;;;;;;;16.42;82.38;;;;;
2023/09/28 18:45:29;;;;;;;12.7;9;;;;;;;16.34;83.88;;;;;
2023/09/28 18:56:29;;;;;;;12.7;9;;;;;;;16.12;84.06;;;;;
2023/09/28 19:07:31;;;;;;;12.7;8.8;;;;;;;15.86;83.77;;;;;
2023/09/28 19:18:29;;;;;;;12.7;8.8;;;;;;;15.65;85.38;;;;;
2023/09/28 19:28:29;;;;;;;12.7;8.8;;;;;;;15.55;85.49;;;;;
2023/09/28 19:38:29;;;;;;;22.6;17.2;;;;;;;15.41;85.54;;;;;
2023/09/28 19:48:29;;;;;;;22.6;17.2;;;;;;;15.3;88.03;;;;;
2023/09/28 19:59:29;;;;;;;22.6;17.2;;;;;;;15.28;88.02;;;;;
2023/09/28 20:09:29;;;;;;;17.6;12.5;;;;;;;15.23;87.81;;;;;
2023/09/28 20:20:29;;;;;;;17.6;12.5;;;;;;;15.09;87.11;;;;;
2023/09/28 20:30:29;;;;;;;17.6;12.5;;;;;;;14.94;86.69;;;;;
2023/09/28 20:40:29;;;;;;;15.9;12.1;;;;;;;14.76;87.16;;;;;
2023/09/28 20:51:29;;;;;;;15.9;12.1;;;;;;;14.63;87.65;;;;;
2023/09/28 21:01:29;;;;;;;15.9;12.1;;;;;;;14.48;88.54;;;;;
2023/09/28 21:12:29;;;;;;;13;10.2;;;;;;;14.35;90.31;;;;;
2023/09/28 21:22:29;;;;;;;13;10.2;;;;;;;14.36;90.45;;;;;
2023/09/28 21:33:29;;;;;;;13;10.2;;;;;;;14.38;90.82;;;;;
2023/09/28 21:44:29;;;;;;;16.7;12.2;;;;;;;14.3;90.65;;;;;
2023/09/28 21:55:30;;;;;;;16.7;12.2;;;;;;;14.43;91.26;;;;;
2023/09/28 22:05:29;;;;;;;16.7;12.2;;;;;;;14.28;90.22;;;;;
2023/09/28 22:16:29;;;;;;;16.1;10.7;;;;;;;14.24;89.73;;;;;
2023/09/28 22:27:30;;;;;;;16.1;10.7;;;;;;;14.19;89.63;;;;;
2023/09/28 22:38:30;;;;;;;12.4;9;;;;;;;14.25;89.28;;;;;
2023/09/28 22:49:30;;;;;;;12.4;9;;;;;;;14.1;88.84;;;;;
2023/09/28 22:59:30;;;;;;;12.4;9;;;;;;;14.01;89.34;;;;;
2023/09/28 23:10:30;;;;;;;11.4;8.1;;;;;;;13.8;89.43;;;;;
2023/09/28 23:21:30;;;;;;;11.4;8.1;;;;;;;13.65;89.11;;;;;
2023/09/28 23:32:31;;;;;;;11.4;8.1;;;;;;;13.66;89.87;;;;;
2023/09/28 23:42:30;;;;;;;11.9;8.6;;;;;;;13.61;89.17;;;;;
2023/09/28 23:53:30;;;;;;;11.9;8.6;;;;;;;13.37;88.61;;;;;
